Crew | Aerofun Virtual



 METAR AND TAF INFORMATION
METAR FOR LXGB
ADDS - METARS form results

(0829 UTC 22 July 2019)
Data provider http://aviationweather.gov/metar/data/
 
METAR text: LXGB 220823Z 09012KT 8000 HZ SCT018 BKN033 23/21 Q1018 TEMPO FEW018 RMK WHT TEMPO BLU
Conditions at: LXGB (GIBRALTAR (CIV/M, GI) observed 0823 UTC 22 July 2019
Temperature: 23.0°C (73°F)
Dewpoint: 21.0°C (70°F) [RH = 89%]
Pressure (altimeter): 30.06 inches Hg (1018.0 mb)
Winds: from the E (90 degrees) at 14 MPH (12 knots; 6.2 m/s)
Visibility: 5 miles ( 8 km)
Ceiling: 3300 feet AGL
Clouds: scattered clouds at 1800 feet AGL
broken clouds at 3300 feet AGL
Weather: HZ  (haze)

METAR text: LXGB 220750Z 09011KT 8000 HZ FEW013 BKN037 23/21 Q1018 TEMPO SCT013
Conditions at: LXGB (GIBRALTAR (CIV/M, GI) observed 0750 UTC 22 July 2019
Temperature: 23.0°C (73°F)
Dewpoint: 21.0°C (70°F) [RH = 89%]
Pressure (altimeter): 30.06 inches Hg (1018.0 mb)
Winds: from the E (90 degrees) at 13 MPH (11 knots; 5.7 m/s)
Visibility: 5 miles ( 8 km)
Ceiling: 3700 feet AGL
Clouds: few clouds at 1300 feet AGL
broken clouds at 3700 feet AGL
Weather: HZ  (haze)

Forecast for: LXGB (GIBRALTAR (CIV/M, GI)
Text: TAF LXGB 220721Z 2209/2218 08012KT 9999 FEW012
Forecast period: 0900 to 1800 UTC 22 July 2019
Forecast type: FROM: standard forecast or significant change
Winds: from the E (80 degrees) at 14 MPH (12 knots; 6.2 m/s)
Visibility: 6 or more miles 10+ km)
Ceiling: at least 12,000 feet AGL
Clouds: few clouds at 1200 feet AGL
Weather: no significant weather forecast for this period
Text: TEMPO 2209/2212 BKN012
Forecast period: 0900 to 1200 UTC 22 July 2019
Forecast type: TEMPORARY: The following changes expected for less than half the time period
Visibility: missing
Ceiling: 1200 feet AGL
Clouds: broken clouds at 1200 feet AGL
Weather: no significant weather forecast for this period
Text: PROB30
Forecast period: 0900 to 1000 UTC 22 July 2019
Forecast type: TEMPORARY: The following changes expected for less than half the time period
Visibility: 4 miles (6 km)
Ceiling: 600 feet AGL
Clouds: broken clouds at 600 feet AGL
Weather: HZ  (haze)
Text: TEMPO 2209/2210 6000 HZ BKN006
Forecast period: 1500 to 1800 UTC 22 July 2019
Forecast type: TEMPORARY: The following changes expected for less than half the time period
Visibility: missing
Ceiling: 1200 feet AGL
Clouds: broken clouds at 1200 feet AGL
Weather: no significant weather forecast for this period

 AIRPORT MAP

 RUNWAY INFORMATION
Runway 09 Runway length 6000 ft Runway width 150 ft
Runway elevation 10 ft Runway displaced threshold 302 ft Runway heading 88
Runway 27 Runway length 6000 ft Runway width 150 ft
Runway elevation 11 ft Runway displaced threshold 368 ft Runway heading 268

 AIRPORT FREQUENCIES
Type A/D Name APP Frequency 122.8 MHZ
Type OPS Name GIB TALKDO Frequency 130.4 MHZ
Type TWR Name TWR Frequency 131.2 MHZ

 AIRPORT NEAR NAVIGATION AIDS
Type TACAN Name Gibraltar Frequency 113600 KHZ